Time,TemperatureF,DewpointF,PressureIn,WindDirection,WindDirectionDegrees,WindSpeedMPH,WindSpeedGustMPH,Humidity,HourlyPrecipIn,Conditions,Clouds,dailyrainin,SoftwareType,DateUTC
2013-10-18 00:00:00,51.5,50.7,29.61,West,274,1.0,4.0,97,0.00,,,0.74,Wunderground v.1.15,2013-10-18 04:00:00,
2013-10-18 00:05:00,51.5,51.0,29.61,West,274,1.0,4.0,98,0.00,,,0.00,Wunderground v.1.15,2013-10-18 04:05:00,
2013-10-18 00:10:00,51.5,50.7,29.61,West,275,1.0,1.0,97,0.00,,,0.01,Wunderground v.1.15,2013-10-18 04:10:00,
2013-10-18 00:15:00,51.5,50.7,29.61,West,277,1.0,1.0,97,0.00,,,0.01,Wunderground v.1.15,2013-10-18 04:15:00,
2013-10-18 00:25:00,51.5,51.0,29.61,WNW,284,1.0,5.0,98,0.05,,,0.02,Wunderground v.1.15,2013-10-18 04:25:00,
2013-10-18 00:30:00,51.5,51.0,29.61,West,281,2.0,4.0,98,0.05,,,0.02,Wunderground v.1.15,2013-10-18 04:30:00,
2013-10-18 00:35:00,51.5,51.0,29.61,West,279,3.0,4.0,98,0.04,,,0.02,Wunderground v.1.15,2013-10-18 04:35:00,
2013-10-18 00:40:00,51.5,51.0,29.61,West,279,1.0,1.0,98,0.00,,,0.02,Wunderground v.1.15,2013-10-18 04:40:00,
2013-10-18 00:45:00,51.5,51.0,29.59,West,279,0.0,1.0,98,0.00,,,0.02,Wunderground v.1.15,2013-10-18 04:45:00,
2013-10-18 00:50:00,51.5,51.0,29.59,West,279,0.0,0.0,98,0.00,,,0.02,Wunderground v.1.15,2013-10-18 04:50:00,
2013-10-18 00:55:00,51.5,51.0,29.59,West,279,0.0,0.0,98,0.00,,,0.03,Wunderground v.1.15,2013-10-18 04:55:00,
2013-10-18 01:00:00,51.4,50.9,29.59,West,279,0.0,0.0,98,0.00,,,0.03,Wunderground v.1.15,2013-10-18 05:00:00,
2013-10-18 01:05:00,51.4,50.9,29.59,West,279,0.0,0.0,98,0.00,,,0.03,Wunderground v.1.15,2013-10-18 05:05:00,
2013-10-18 01:15:00,51.3,50.8,29.59,West,279,0.0,0.0,98,0.00,,,0.03,Wunderground v.1.15,2013-10-18 05:15:00,
2013-10-18 01:20:00,51.2,50.7,29.59,West,279,0.0,0.0,98,0.00,,,0.03,Wunderground v.1.15,2013-10-18 05:20:00,
2013-10-18 01:25:00,51.1,50.6,29.59,West,279,0.0,0.0,98,0.00,,,0.03,Wunderground v.1.15,2013-10-18 05:25:00,
2013-10-18 01:35:00,51.0,50.5,29.60,West,279,0.0,0.0,98,0.00,,,0.03,Wunderground v.1.15,2013-10-18 05:35:00,
2013-10-18 01:45:00,51.0,50.5,29.61,West,279,1.0,1.0,98,0.00,,,0.03,Wunderground v.1.15,2013-10-18 05:45:00,
2013-10-18 01:50:00,51.1,50.6,29.61,West,279,0.0,4.0,98,0.00,,,0.03,Wunderground v.1.15,2013-10-18 05:50:00,
2013-10-18 02:00:00,51.3,50.8,29.61,West,279,1.0,3.0,98,0.00,,,0.03,Wunderground v.1.15,2013-10-18 06:00:00,
2013-10-18 02:05:00,51.3,50.8,29.61,West,268,1.0,3.0,98,0.00,,,0.03,Wunderground v.1.15,2013-10-18 06:05:00,
2013-10-18 02:15:00,51.4,50.9,29.62,SW,232,1.0,5.0,98,0.00,,,0.03,Wunderground v.1.15,2013-10-18 06:15:00,
2013-10-18 02:20:00,51.4,50.9,29.62,SW,231,2.0,2.0,98,0.00,,,0.03,Wunderground v.1.15,2013-10-18 06:20:00,
2013-10-18 02:25:00,51.5,50.7,29.62,SW,231,2.0,2.0,97,0.00,,,0.03,Wunderground v.1.15,2013-10-18 06:25:00,
2013-10-18 09:05:00,52.7,47.7,29.73,West,279,5.0,8.0,83,0.00,,,0.12,Wunderground v.1.15,2013-10-18 13:05:00,
2013-10-18 09:15:00,53.1,47.7,29.73,SW,224,6.0,11.0,82,0.00,,,0.12,Wunderground v.1.15,2013-10-18 13:15:00,
2013-10-18 09:20:00,53.2,48.2,29.73,West,267,6.0,6.0,83,0.00,,,0.12,Wunderground v.1.15,2013-10-18 13:20:00,
2013-10-18 09:30:00,53.3,47.3,29.74,WSW,238,7.0,10.0,80,0.00,,,0.12,Wunderground v.1.15,2013-10-18 13:30:00,
2013-10-18 09:35:00,53.5,47.8,29.74,WSW,257,8.0,10.0,81,0.00,,,0.12,Wunderground v.1.15,2013-10-18 13:35:00,
2013-10-18 09:45:00,53.7,48.0,29.74,SSW,211,8.0,8.0,81,0.00,,,0.12,Wunderground v.1.15,2013-10-18 13:45:00,
2013-10-18 09:50:00,53.9,47.9,29.74,West,263,9.0,10.0,80,0.00,,,0.12,Wunderground v.1.15,2013-10-18 13:50:00,
2013-10-18 09:55:00,54.3,48.6,29.74,WSW,255,8.0,10.0,81,0.00,,,0.12,Wunderground v.1.15,2013-10-18 13:55:00,
2013-10-18 10:05:00,53.8,47.8,29.75,West,275,7.0,12.0,80,0.00,,,0.12,Wunderground v.1.15,2013-10-18 14:05:00,
2013-10-18 10:15:00,53.3,47.9,29.75,SW,225,8.0,11.0,82,0.00,,,0.12,Wunderground v.1.15,2013-10-18 14:15:00,
2013-10-18 10:25:00,53.2,47.8,29.75,West,270,7.0,8.0,82,0.00,,,0.12,Wunderground v.1.15,2013-10-18 14:25:00,
2013-10-18 10:30:00,53.0,47.3,29.76,West,277,8.0,14.0,81,0.00,,,0.12,Wunderground v.1.15,2013-10-18 14:30:00,
2013-10-18 10:35:00,53.1,47.7,29.76,West,272,10.0,14.0,82,0.00,,,0.12,Wunderground v.1.15,2013-10-18 14:35:00,
2013-10-18 10:45:00,54.2,48.2,29.76,WSW,243,8.0,10.0,80,0.00,,,0.12,Wunderground v.1.15,2013-10-18 14:45:00,
2013-10-18 10:50:00,54.6,48.9,29.76,WSW,257,7.0,9.0,81,0.00,,,0.12,Wunderground v.1.15,2013-10-18 14:50:00,
2013-10-18 11:00:00,53.9,47.9,29.77,WNW,286,8.0,8.0,80,0.00,,,0.12,Wunderground v.1.15,2013-10-18 15:00:00,
2013-10-18 11:05:00,53.7,47.0,29.77,West,275,10.0,10.0,78,0.00,,,0.12,Wunderground v.1.15,2013-10-18 15:05:00,
2013-10-18 11:15:00,53.5,47.1,29.78,WNW,282,10.0,11.0,79,0.00,,,0.12,Wunderground v.1.15,2013-10-18 15:15:00,
2013-10-18 11:25:00,53.3,47.6,29.78,WNW,288,10.0,12.0,81,0.00,,,0.12,Wunderground v.1.15,2013-10-18 15:25:00,
2013-10-18 11:35:00,54.2,47.8,29.77,WNW,296,10.0,13.0,79,0.00,,,0.12,Wunderground v.1.15,2013-10-18 15:35:00,
2013-10-18 11:45:00,53.8,46.8,29.78,WNW,284,11.0,19.0,77,0.00,,,0.12,Wunderground v.1.15,2013-10-18 15:45:00,
2013-10-18 11:55:00,53.8,46.8,29.78,West,277,11.0,12.0,77,0.00,,,0.12,Wunderground v.1.15,2013-10-18 15:55:00,
2013-10-18 12:00:00,53.7,46.7,29.78,WNW,292,10.0,12.0,77,0.00,,,0.12,Wunderground v.1.15,2013-10-18 16:00:00,
2013-10-18 12:05:00,54.6,47.5,29.78,West,276,9.0,12.0,77,0.00,,,0.12,Wunderground v.1.15,2013-10-18 16:05:00,
2013-10-18 12:15:00,55.0,48.3,29.78,West,275,8.0,10.0,78,0.00,,,0.12,Wunderground v.1.15,2013-10-18 16:15:00,
2013-10-18 12:20:00,56.3,48.1,29.78,WNW,282,7.0,7.0,74,0.00,,,0.12,Wunderground v.1.15,2013-10-18 16:20:00,
2013-10-18 12:25:00,57.3,47.6,29.78,WNW,298,6.0,7.0,70,0.00,,,0.12,Wunderground v.1.15,2013-10-18 16:25:00,
2013-10-18 12:35:00,56.8,43.1,29.78,WNW,302,12.0,12.0,60,0.00,,,0.12,Wunderground v.1.15,2013-10-18 16:35:00,
2013-10-18 12:45:00,57.4,44.9,29.78,WNW,286,11.0,11.0,63,0.00,,,0.12,Wunderground v.1.15,2013-10-18 16:45:00,
2013-10-18 12:55:00,57.3,41.3,29.78,West,279,12.0,14.0,55,0.00,,,0.12,Wunderground v.1.15,2013-10-18 16:55:00,
2013-10-18 13:00:00,57.4,43.2,29.78,NW,320,12.0,12.0,59,0.00,,,0.12,Wunderground v.1.15,2013-10-18 17:00:00,
2013-10-18 13:05:00,57.4,43.6,29.78,West,281,10.0,12.0,60,0.00,,,0.12,Wunderground v.1.15,2013-10-18 17:05:00,
2013-10-18 13:15:00,57.8,41.7,29.78,NW,313,9.0,12.0,55,0.00,,,0.12,Wunderground v.1.15,2013-10-18 17:15:00,
2013-10-18 13:20:00,57.7,41.6,29.78,WNW,292,10.0,18.0,55,0.00,,,0.12,Wunderground v.1.15,2013-10-18 17:20:00,
2013-10-18 13:25:00,57.5,42.4,29.78,WSW,251,11.0,18.0,57,0.00,,,0.12,Wunderground v.1.15,2013-10-18 17:25:00,
2013-10-18 13:35:00,57.6,42.5,29.78,SW,225,10.0,11.0,57,0.00,,,0.12,Wunderground v.1.15,2013-10-18 17:35:00,
2013-10-18 13:45:00,55.6,42.4,29.79,WNW,286,9.0,14.0,61,0.00,,,0.12,Wunderground v.1.15,2013-10-18 17:45:00,
2013-10-18 13:55:00,58.1,43.4,29.79,West,259,7.0,9.0,58,0.00,,,0.12,Wunderground v.1.15,2013-10-18 17:55:00,
2013-10-18 14:00:00,58.0,41.9,29.79,WSW,252,9.0,9.0,55,0.00,,,0.12,Wunderground v.1.15,2013-10-18 18:00:00,
2013-10-18 14:05:00,57.6,39.1,29.79,West,271,12.0,18.0,50,0.00,,,0.12,Wunderground v.1.15,2013-10-18 18:05:00,
2013-10-18 14:15:00,57.0,40.0,29.80,West,261,13.0,13.0,53,0.00,,,0.12,Wunderground v.1.15,2013-10-18 18:15:00,
2013-10-18 14:20:00,57.1,41.5,29.80,WSW,240,11.0,11.0,56,0.00,,,0.12,Wunderground v.1.15,2013-10-18 18:20:00,
2013-10-18 14:25:00,57.2,40.7,29.80,West,269,11.0,19.0,54,0.00,,,0.12,Wunderground v.1.15,2013-10-18 18:25:00,
2013-10-18 14:35:00,56.5,40.5,29.80,West,275,12.0,15.0,55,0.00,,,0.12,Wunderground v.1.15,2013-10-18 18:35:00,
2013-10-18 14:45:00,55.8,40.3,29.80,WNW,286,10.0,14.0,56,0.00,,,0.12,Wunderground v.1.15,2013-10-18 18:45:00,
2013-10-18 14:50:00,55.3,40.8,29.80,West,277,10.0,10.0,58,0.00,,,0.12,Wunderground v.1.15,2013-10-18 18:50:00,
2013-10-18 15:00:00,56.2,40.7,29.80,WNW,282,11.0,13.0,56,0.00,,,0.12,Wunderground v.1.15,2013-10-18 19:00:00,
2013-10-18 15:05:00,56.7,41.2,29.80,West,276,11.0,13.0,56,0.00,,,0.12,Wunderground v.1.15,2013-10-18 19:05:00,
2013-10-18 15:15:00,56.2,41.2,29.81,West,280,10.0,12.0,57,0.00,,,0.12,Wunderground v.1.15,2013-10-18 19:15:00,
2013-10-18 15:20:00,56.6,42.4,29.81,NW,304,10.0,11.0,59,0.00,,,0.12,Wunderground v.1.15,2013-10-18 19:20:00,
2013-10-18 15:25:00,56.9,42.3,29.81,WNW,290,10.0,11.0,58,0.00,,,0.12,Wunderground v.1.15,2013-10-18 19:25:00,
2013-10-18 15:35:00,56.3,40.3,29.81,West,276,9.0,16.0,55,0.00,,,0.12,Wunderground v.1.15,2013-10-18 19:35:00,
2013-10-18 15:45:00,56.0,41.4,29.82,West,269,9.0,10.0,58,0.00,,,0.12,Wunderground v.1.15,2013-10-18 19:45:00,
2013-10-18 15:55:00,55.4,40.9,29.82,WNW,299,6.0,7.0,58,0.00,,,0.12,Wunderground v.1.15,2013-10-18 19:55:00,
2013-10-18 16:00:00,55.6,41.5,29.82,West,264,6.0,6.0,59,0.00,,,0.12,Wunderground v.1.15,2013-10-18 20:00:00,
2013-10-18 16:05:00,55.9,40.9,29.82,WNW,284,7.0,12.0,57,0.00,,,0.12,Wunderground v.1.15,2013-10-18 20:05:00,
2013-10-18 16:10:00,55.5,41.0,29.82,West,275,9.0,9.0,58,0.00,,,0.12,Wunderground v.1.15,2013-10-18 20:10:00,
2013-10-18 16:20:00,55.1,41.0,29.81,WNW,299,6.0,11.0,59,0.00,,,0.12,Wunderground v.1.15,2013-10-18 20:20:00,
2013-10-18 16:30:00,55.7,41.1,29.81,WNW,284,8.0,8.0,58,0.00,,,0.12,Wunderground v.1.15,2013-10-18 20:30:00,
2013-10-18 16:35:00,55.4,40.9,29.81,WSW,255,9.0,11.0,58,0.00,,,0.12,Wunderground v.1.15,2013-10-18 20:35:00,
2013-10-18 16:45:00,55.4,40.4,29.81,WNW,285,9.0,11.0,57,0.00,,,0.12,Wunderground v.1.15,2013-10-18 20:45:00,
2013-10-18 16:55:00,54.9,40.8,29.81,WSW,242,9.0,12.0,59,0.00,,,0.12,Wunderground v.1.15,2013-10-18 20:55:00,
2013-10-18 17:00:00,54.8,40.7,29.81,WNW,299,7.0,7.0,59,0.00,,,0.12,Wunderground v.1.15,2013-10-18 21:00:00,
2013-10-18 17:05:00,54.8,41.2,29.81,WNW,288,7.0,7.0,60,0.00,,,0.12,Wunderground v.1.15,2013-10-18 21:05:00,
2013-10-18 17:15:00,54.5,41.3,29.82,WNW,284,5.0,7.0,61,0.00,,,0.12,Wunderground v.1.15,2013-10-18 21:15:00,
2013-10-18 17:20:00,54.3,40.7,29.82,West,269,5.0,7.0,60,0.00,,,0.12,Wunderground v.1.15,2013-10-18 21:20:00,
2013-10-18 17:25:00,54.0,40.8,29.82,West,266,5.0,7.0,61,0.00,,,0.12,Wunderground v.1.15,2013-10-18 21:25:00,
2013-10-18 17:35:00,53.4,41.1,29.82,WNW,283,4.0,5.0,63,0.00,,,0.12,Wunderground v.1.15,2013-10-18 21:35:00,
2013-10-18 17:45:00,52.8,41.0,29.83,West,279,3.0,4.0,64,0.00,,,0.12,Wunderground v.1.15,2013-10-18 21:45:00,
2013-10-18 17:55:00,52.3,41.3,29.83,WNW,288,2.0,5.0,66,0.00,,,0.12,Wunderground v.1.15,2013-10-18 21:55:00,
2013-10-18 18:05:00,52.6,41.6,29.83,West,277,4.0,4.0,66,0.00,,,0.12,Wunderground v.1.15,2013-10-18 22:05:00,
2013-10-18 18:15:00,52.2,41.6,29.83,West,277,2.0,4.0,67,0.00,,,0.12,Wunderground v.1.15,2013-10-18 22:15:00,
2013-10-18 18:20:00,51.8,41.9,29.83,West,277,1.0,1.0,69,0.00,,,0.12,Wunderground v.1.15,2013-10-18 22:20:00,
2013-10-18 18:30:00,51.5,42.0,29.83,West,277,0.0,0.0,70,0.00,,,0.12,Wunderground v.1.15,2013-10-18 22:30:00,
2013-10-18 18:35:00,51.2,41.7,29.83,West,277,0.0,0.0,70,0.00,,,0.12,Wunderground v.1.15,2013-10-18 22:35:00,
2013-10-18 18:45:00,49.6,41.7,29.84,West,277,0.0,0.0,74,0.00,,,0.12,Wunderground v.1.15,2013-10-18 22:45:00,
2013-10-18 18:55:00,48.3,42.4,29.84,West,277,0.0,0.0,80,0.00,,,0.12,Wunderground v.1.15,2013-10-18 22:55:00,
2013-10-18 19:00:00,48.2,43.0,29.84,West,277,0.0,0.0,82,0.00,,,0.12,Wunderground v.1.15,2013-10-18 23:00:00,
2013-10-18 19:05:00,48.0,43.1,29.84,West,277,0.0,0.0,83,0.00,,,0.12,Wunderground v.1.15,2013-10-18 23:05:00,
2013-10-18 19:15:00,47.3,42.7,29.85,West,277,0.0,0.0,84,0.00,,,0.12,Wunderground v.1.15,2013-10-18 23:15:00,
2013-10-18 19:20:00,47.1,42.8,29.85,West,277,0.0,0.0,85,0.00,,,0.12,Wunderground v.1.15,2013-10-18 23:20:00,
2013-10-18 19:25:00,47.1,43.4,29.85,West,277,0.0,0.0,87,0.00,,,0.12,Wunderground v.1.15,2013-10-18 23:25:00,
2013-10-18 19:35:00,46.9,43.2,29.85,West,277,0.0,0.0,87,0.00,,,0.12,Wunderground v.1.15,2013-10-18 23:35:00,
2013-10-18 19:45:00,46.6,43.2,29.86,West,277,0.0,0.0,88,0.00,,,0.12,Wunderground v.1.15,2013-10-18 23:45:00,
2013-10-18 19:55:00,46.1,43.0,29.86,West,277,0.0,0.0,89,0.00,,,0.12,Wunderground v.1.15,2013-10-18 23:55:00,
2013-10-18 20:00:00,45.7,42.9,29.86,West,277,0.0,0.0,90,0.00,,,0.12,Wunderground v.1.15,2013-10-19 00:00:00,
2013-10-18 20:05:00,45.5,43.0,29.86,West,277,0.0,0.0,91,0.00,,,0.12,Wunderground v.1.15,2013-10-19 00:05:00,
2013-10-18 20:15:00,45.2,43.0,29.86,West,277,0.0,0.0,92,0.00,,,0.12,Wunderground v.1.15,2013-10-19 00:15:00,
2013-10-18 20:20:00,45.1,42.9,29.86,West,277,0.0,0.0,92,0.00,,,0.12,Wunderground v.1.15,2013-10-19 00:20:00,
2013-10-18 20:30:00,44.7,42.5,29.86,West,277,0.0,0.0,92,0.00,,,0.12,Wunderground v.1.15,2013-10-19 00:30:00,
2013-10-18 20:35:00,44.2,42.0,29.86,West,277,0.0,0.0,92,0.00,,,0.12,Wunderground v.1.15,2013-10-19 00:35:00,
2013-10-18 20:45:00,43.6,41.7,29.86,West,277,0.0,0.0,93,0.00,,,0.12,Wunderground v.1.15,2013-10-19 00:45:00,
2013-10-18 20:55:00,43.3,41.7,29.86,West,277,0.0,0.0,94,0.00,,,0.12,Wunderground v.1.15,2013-10-19 00:55:00,
2013-10-18 21:00:00,43.4,41.8,29.86,West,277,0.0,0.0,94,0.00,,,0.12,Wunderground v.1.15,2013-10-19 01:00:00,
2013-10-18 21:05:00,43.3,41.7,29.86,West,277,0.0,0.0,94,0.00,,,0.12,Wunderground v.1.15,2013-10-19 01:05:00,
2013-10-18 21:15:00,42.9,41.3,29.87,West,277,0.0,0.0,94,0.00,,,0.12,Wunderground v.1.15,2013-10-19 01:15:00,
2013-10-18 21:20:00,43.1,41.8,29.87,West,277,0.0,0.0,95,0.00,,,0.12,Wunderground v.1.15,2013-10-19 01:20:00,
2013-10-18 21:30:00,42.9,41.6,29.87,West,277,0.0,0.0,95,0.00,,,0.12,Wunderground v.1.15,2013-10-19 01:30:00,
2013-10-18 21:35:00,42.7,41.1,29.87,West,277,0.0,0.0,94,0.00,,,0.12,Wunderground v.1.15,2013-10-19 01:35:00,
2013-10-18 21:45:00,42.5,41.2,29.87,West,277,0.0,0.0,95,0.00,,,0.12,Wunderground v.1.15,2013-10-19 01:45:00,
2013-10-18 21:55:00,43.1,41.5,29.87,West,277,0.0,0.0,94,0.00,,,0.12,Wunderground v.1.15,2013-10-19 01:55:00,
2013-10-18 22:05:00,42.9,41.3,29.87,West,277,0.0,0.0,94,0.00,,,0.12,Wunderground v.1.15,2013-10-19 02:05:00,
2013-10-18 22:15:00,44.2,42.3,29.87,West,277,0.0,0.0,93,0.00,,,0.12,Wunderground v.1.15,2013-10-19 02:15:00,
2013-10-18 22:20:00,44.5,42.3,29.87,West,277,0.0,0.0,92,0.00,,,0.12,Wunderground v.1.15,2013-10-19 02:20:00,
2013-10-18 22:30:00,45.3,42.8,29.86,West,277,0.0,0.0,91,0.00,,,0.12,Wunderground v.1.15,2013-10-19 02:30:00,
2013-10-18 22:35:00,46.0,42.6,29.86,West,277,0.0,0.0,88,0.00,,,0.12,Wunderground v.1.15,2013-10-19 02:35:00,
2013-10-18 22:45:00,46.3,42.6,29.86,West,277,0.0,0.0,87,0.00,,,0.12,Wunderground v.1.15,2013-10-19 02:45:00,
2013-10-18 22:50:00,46.3,42.6,29.86,West,277,0.0,0.0,87,0.00,,,0.12,Wunderground v.1.15,2013-10-19 02:50:00,
2013-10-18 22:55:00,46.2,42.5,29.86,West,277,0.0,0.0,87,0.00,,,0.12,Wunderground v.1.15,2013-10-19 02:55:00,
2013-10-18 23:05:00,45.8,42.2,29.86,West,277,0.0,0.0,87,0.00,,,0.12,Wunderground v.1.15,2013-10-19 03:05:00,
2013-10-18 23:15:00,44.8,41.8,29.86,West,277,0.0,0.0,89,0.00,,,0.12,Wunderground v.1.15,2013-10-19 03:15:00,
2013-10-18 23:20:00,44.1,41.4,29.86,West,277,0.0,0.0,90,0.00,,,0.12,Wunderground v.1.15,2013-10-19 03:20:00,
2013-10-18 23:25:00,43.6,41.4,29.86,West,277,0.0,0.0,92,0.00,,,0.12,Wunderground v.1.15,2013-10-19 03:25:00,
2013-10-18 23:35:00,43.3,41.4,29.86,West,277,0.0,0.0,93,0.00,,,0.12,Wunderground v.1.15,2013-10-19 03:35:00,
2013-10-18 23:45:00,44.5,42.3,29.86,West,277,0.0,0.0,92,0.00,,,0.12,Wunderground v.1.15,2013-10-19 03:45:00,
2013-10-18 23:55:00,44.2,42.3,29.86,West,277,0.0,0.0,93,0.00,,,0.12,Wunderground v.1.15,2013-10-19 03:55:00,